Time;durP1;ratioP1;P1;durP2;ratioP2;P2;SDS_P1;SDS_P2;PMS_P1;PMS_P2;Temp;Humidity;BMP_temperature;BMP_pressure;BME280_temperature;BME280_humidity;BME280_pressure;Samples;Min_cycle;Max_cycle;Signal;HPM_P1;HPM_P2
2022/04/30 00:00:16;;;;;;;10.85;5.03;;;20.20;47.90;;;;;;6246003;28;20365;-70
2022/04/30 00:03:17;;;;;;;10.60;4.80;;;20.30;48.00;;;;;;6246004;28;20045;-70
2022/04/30 00:06:18;;;;;;;9.35;4.78;;;20.20;47.90;;;;;;6245849;28;20053;-70
2022/04/30 00:09:19;;;;;;;7.53;4.93;;;20.20;47.90;;;;;;6246087;28;20387;-70
2022/04/30 00:12:20;;;;;;;9.90;4.65;;;20.20;47.90;;;;;;6245790;28;20034;-70
2022/04/30 00:15:22;;;;;;;9.00;4.95;;;20.20;48.00;;;;;;6245459;28;20067;-69
2022/04/30 00:18:25;;;;;;;8.80;4.25;;;20.20;48.00;;;;;;6245855;28;20112;-69
2022/04/30 00:21:25;;;;;;;10.02;4.57;;;20.20;48.00;;;;;;6245741;28;20022;-70
2022/04/30 00:24:26;;;;;;;7.95;4.38;;;20.20;48.00;;;;;;6245422;28;20029;-69
2022/04/30 00:27:27;;;;;;;8.10;3.95;;;20.20;48.00;;;;;;6227876;28;20029;-70
2022/04/30 00:30:28;;;;;;;9.15;4.20;;;20.20;48.00;;;;;;6245360;28;20120;-70
2022/04/30 00:33:28;;;;;;;8.63;4.57;;;20.20;48.00;;;;;;6245253;28;20032;-70
2022/04/30 00:36:29;;;;;;;8.98;4.65;;;20.20;48.00;;;;;;6245037;28;20025;-70
2022/04/30 00:39:31;;;;;;;7.32;4.15;;;20.20;48.00;;;;;;6227511;28;20064;-70
2022/04/30 00:42:32;;;;;;;7.80;4.28;;;20.20;48.00;;;;;;6245210;28;20104;-69
2022/04/30 00:45:32;;;;;;;6.78;4.07;;;20.20;48.10;;;;;;6244342;28;20025;-69
2022/04/30 00:48:33;;;;;;;7.55;4.00;;;20.20;48.00;;;;;;6244887;28;20109;-71
2022/04/30 00:51:38;;;;;;;6.05;3.67;;;20.20;48.10;;;;;;6245363;28;20025;-69
2022/04/30 00:54:41;;;;;;;6.82;3.80;;;20.20;48.00;;;;;;6244771;28;20025;-70
2022/04/30 00:57:43;;;;;;;7.90;4.10;;;20.20;48.10;;;;;;6244872;28;20030;-70
2022/04/30 01:00:48;;;;;;;7.20;3.88;;;20.30;48.80;;;;;;6244839;28;20076;-70
2022/04/30 01:03:49;;;;;;;6.55;3.55;;;20.20;48.10;;;;;;6227170;28;20022;-69
2022/04/30 01:06:52;;;;;;;6.25;3.65;;;20.20;48.10;;;;;;6244860;28;20030;-70
2022/04/30 01:09:54;;;;;;;9.50;4.25;;;20.20;48.10;;;;;;6226773;28;20159;-70
2022/04/30 01:12:54;;;;;;;6.03;3.45;;;20.20;48.10;;;;;;6244957;28;20484;-70
2022/04/30 01:15:58;;;;;;;9.18;4.10;;;20.20;48.10;;;;;;6244370;28;20048;-70
2022/04/30 01:19:01;;;;;;;6.25;3.50;;;20.20;48.10;;;;;;6244827;28;20025;-70
2022/04/30 01:22:08;;;;;;;7.05;3.88;;;20.20;48.10;;;;;;6244624;28;20458;-70
2022/04/30 01:25:09;;;;;;;5.72;2.90;;;20.20;48.10;;;;;;6243299;28;20026;-70
2022/04/30 01:28:11;;;;;;;6.22;3.40;;;20.20;48.10;;;;;;6244849;28;20104;-70
2022/04/30 01:37:50;;;;;;;4.93;3.03;;;20.20;48.10;;;;;;6244483;28;20391;-70
2022/04/30 01:40:51;;;;;;;6.05;3.40;;;20.20;48.10;;;;;;6244464;28;20048;-70
2022/04/30 01:43:52;;;;;;;6.35;3.60;;;20.20;48.10;;;;;;6245061;28;20021;-70
2022/04/30 01:46:52;;;;;;;6.90;3.53;;;20.20;48.10;;;;;;6244620;28;20037;-70
2022/04/30 01:49:53;;;;;;;5.30;3.35;;;20.20;48.10;;;;;;6244440;28;20025;-70
2022/04/30 01:52:54;;;;;;;5.57;3.00;;;20.20;48.20;;;;;;6244259;28;20041;-70
2022/04/30 01:55:54;;;;;;;6.15;3.30;;;20.20;48.20;;;;;;6244034;28;20022;-70
2022/04/30 01:58:55;;;;;;;6.40;3.17;;;20.20;48.20;;;;;;6248031;28;20021;-70
2022/04/30 02:01:56;;;;;;;5.05;2.80;;;20.20;48.20;;;;;;6248996;28;20021;-70
2022/04/30 02:05:01;;;;;;;4.47;2.60;;;20.20;48.20;;;;;;6249356;28;20025;-70
2022/04/30 02:08:07;;;;;;;5.10;3.28;;;20.20;48.80;;;;;;6231261;28;20025;-70
2022/04/30 02:11:08;;;;;;;5.70;3.00;;;20.20;48.20;;;;;;6248454;28;20708;-70
2022/04/30 02:14:11;;;;;;;5.65;3.22;;;20.20;48.20;;;;;;6230816;28;20025;-71
2022/04/30 02:17:13;;;;;;;4.97;3.00;;;20.20;48.10;;;;;;6230440;28;20164;-70
2022/04/30 02:20:18;;;;;;;3.85;2.50;;;20.20;48.20;;;;;;6248568;28;20029;-70
2022/04/30 02:23:22;;;;;;;4.63;2.88;;;20.20;48.20;;;;;;6248590;28;20404;-69
2022/04/30 02:26:25;;;;;;;5.30;2.75;;;20.20;48.20;;;;;;6248305;28;20031;-70
2022/04/30 02:29:26;;;;;;;5.47;2.97;;;20.20;48.20;;;;;;6248235;28;20108;-70
2022/04/30 02:32:27;;;;;;;6.18;3.08;;;20.20;48.20;;;;;;6248229;28;20040;-70
2022/04/30 02:35:33;;;;;;;5.05;2.88;;;20.20;48.20;;;;;;6248148;28;20025;-70
2022/04/30 02:38:35;;;;;;;5.43;3.05;;;20.20;48.20;;;;;;6247828;28;20400;-70
2022/04/30 02:41:35;;;;;;;4.82;2.78;;;20.20;48.20;;;;;;6248143;28;20037;-70
2022/04/30 02:44:36;;;;;;;4.70;2.83;;;20.20;48.20;;;;;;6247843;28;20048;-70
2022/04/30 02:47:38;;;;;;;4.35;3.00;;;20.20;48.20;;;;;;6247924;28;20038;-70
2022/04/30 02:50:40;;;;;;;4.40;2.80;;;20.20;48.20;;;;;;6247812;28;20025;-69
2022/04/30 02:53:41;;;;;;;4.53;2.90;;;20.20;48.20;;;;;;6248713;28;20033;-71
2022/04/30 02:56:42;;;;;;;4.57;2.65;;;20.20;48.20;;;;;;6247014;28;20029;-70
2022/04/30 02:59:55;;;;;;;4.95;2.80;;;20.20;48.20;;;;;;6247730;28;20524;-71
2022/04/30 03:02:56;;;;;;;6.18;2.90;;;20.20;48.20;;;;;;6246151;28;20029;-70
2022/04/30 03:05:57;;;;;;;4.35;2.60;;;20.20;48.20;;;;;;6246230;28;20064;-70
2022/04/30 03:08:58;;;;;;;4.57;2.85;;;20.20;48.20;;;;;;6246260;28;20021;-70
2022/04/30 03:11:59;;;;;;;4.03;2.42;;;20.20;48.20;;;;;;6247524;28;20053;-70
2022/04/30 03:15:00;;;;;;;4.38;2.65;;;20.20;48.20;;;;;;6247196;28;20035;-70
2022/04/30 03:21:54;;;;;;;3.80;2.47;;;20.20;48.20;;;;;;6247397;28;20026;-70
2022/04/30 03:24:48;;;;;;;3.88;2.55;;;20.20;48.20;;;;;;6246871;28;20484;-70
2022/04/30 03:27:49;;;;;;;4.15;2.33;;;20.20;48.20;;;;;;6246920;28;20075;-70
2022/04/30 03:30:50;;;;;;;5.13;2.45;;;20.20;48.20;;;;;;6245342;28;20018;-70
2022/04/30 03:33:50;;;;;;;3.28;2.28;;;20.20;48.20;;;;;;6246287;28;20518;-70
2022/04/30 03:36:51;;;;;;;3.97;2.50;;;20.20;48.20;;;;;;6228787;28;20021;-70
2022/04/30 03:39:51;;;;;;;3.33;2.10;;;20.20;48.20;;;;;;6246281;28;20036;-70
2022/04/30 03:42:52;;;;;;;3.30;2.22;;;20.20;48.20;;;;;;6246719;28;20445;-70
2022/04/30 03:45:52;;;;;;;4.35;2.25;;;20.20;48.20;;;;;;6246316;28;20033;-70
2022/04/30 03:48:56;;;;;;;5.35;2.25;;;20.20;48.20;;;;;;6246465;28;20029;-70
2022/04/30 03:51:56;;;;;;;4.38;2.30;;;20.20;48.20;;;;;;6245924;28;20112;-70
2022/04/30 03:54:57;;;;;;;4.88;2.50;;;20.20;48.20;;;;;;6246029;28;20040;-70
2022/04/30 03:57:59;;;;;;;3.55;2.35;;;20.20;48.20;;;;;;6245919;28;20437;-70
2022/04/30 04:01:00;;;;;;;4.07;2.60;;;20.20;48.20;;;;;;6246448;28;20412;-70
2022/04/30 04:04:01;;;;;;;2.75;1.90;;;20.20;48.20;;;;;;6245882;28;20092;-70
2022/04/30 04:07:02;;;;;;;3.78;1.98;;;20.20;48.20;;;;;;6228128;28;20029;-70
2022/04/30 04:10:03;;;;;;;3.75;2.20;;;20.20;48.20;;;;;;6245516;28;20106;-70
2022/04/30 04:19:42;;;;;;;3.35;2.05;;;20.20;48.20;;;;;;6245061;28;20025;-75
2022/04/30 04:22:42;;;;;;;2.95;1.77;;;20.20;48.20;;;;;;6245202;28;20032;-73
2022/04/30 04:26:01;;;;;;;2.95;1.90;;;20.20;48.30;;;;;;6244603;28;20026;-70
2022/04/30 04:29:02;;;;;;;2.85;1.80;;;20.20;48.20;;;;;;6227756;28;20112;-73
2022/04/30 04:32:03;;;;;;;3.13;1.98;;;20.20;48.30;;;;;;6268450;28;20025;-70
2022/04/30 04:35:04;;;;;;;3.55;2.22;;;20.20;48.20;;;;;;6267581;28;20109;-70
2022/04/30 04:38:04;;;;;;;3.30;1.92;;;20.20;48.20;;;;;;6267633;28;20091;-71
2022/04/30 04:41:05;;;;;;;4.55;1.92;;;20.20;48.20;;;;;;6267332;28;20094;-70
2022/04/30 04:44:06;;;;;;;3.58;2.17;;;20.20;48.20;;;;;;6268874;28;20017;-71
2022/04/30 04:47:06;;;;;;;2.95;2.10;;;20.20;48.30;;;;;;6250775;28;20021;-71
2022/04/30 04:50:12;;;;;;;3.47;2.05;;;20.20;48.30;;;;;;6268807;28;20028;-70
2022/04/30 04:53:14;;;;;;;2.67;1.77;;;20.20;48.20;;;;;;6268534;28;20043;-70
2022/04/30 04:56:14;;;;;;;3.17;1.80;;;20.20;48.20;;;;;;6268309;28;20407;-70
2022/04/30 05:03:13;;;;;;;3.42;1.90;;;20.20;48.20;;;;;;6268341;28;20480;-71
2022/04/30 05:06:13;;;;;;;3.50;1.88;;;20.20;48.30;;;;;;6268202;28;20017;-70
2022/04/30 05:09:14;;;;;;;3.05;1.95;;;20.20;48.20;;;;;;6267843;28;20108;-71
2022/04/30 05:12:15;;;;;;;3.47;1.67;;;20.20;48.20;;;;;;6250244;28;20017;-70
2022/04/30 05:15:16;;;;;;;3.72;2.20;;;20.20;48.20;;;;;;6267797;28;20021;-70
2022/04/30 05:18:17;;;;;;;2.67;1.60;;;20.20;48.20;;;;;;6268338;28;20036;-70
2022/04/30 05:21:18;;;;;;;2.35;1.67;;;20.20;48.20;;;;;;6267923;28;20037;-70
2022/04/30 05:24:18;;;;;;;3.38;1.85;;;20.20;48.20;;;;;;6268007;28;20025;-71
2022/04/30 05:27:19;;;;;;;2.63;1.50;;;20.20;48.20;;;;;;6268134;28;20021;-71
2022/04/30 05:30:19;;;;;;;2.90;1.67;;;20.20;48.20;;;;;;6267763;28;20028;-70
2022/04/30 05:33:20;;;;;;;2.95;1.70;;;20.20;48.20;;;;;;6270901;28;20539;-71
2022/04/30 05:36:21;;;;;;;2.50;1.50;;;20.20;48.20;;;;;;6272885;28;20027;-70
2022/04/30 05:39:21;;;;;;;3.30;2.10;;;20.20;48.20;;;;;;6273208;28;20029;-70
2022/04/30 05:42:22;;;;;;;2.42;1.67;;;20.20;48.30;;;;;;6288271;28;20082;-71
2022/04/30 05:45:23;;;;;;;3.33;1.58;;;20.20;48.20;;;;;;6273117;28;20032;-70
2022/04/30 05:48:23;;;;;;;2.28;1.48;;;20.20;48.20;;;;;;6254830;28;20021;-70
2022/04/30 05:51:24;;;;;;;3.47;1.73;;;20.20;48.20;;;;;;6272875;28;20035;-70
2022/04/30 05:54:25;;;;;;;4.28;1.50;;;20.20;48.20;;;;;;6272589;28;20048;-70
2022/04/30 05:57:25;;;;;;;2.78;1.67;;;20.20;48.30;;;;;;6254479;28;20036;-71
2022/04/30 06:00:26;;;;;;;2.13;1.48;;;20.20;49.00;;;;;;6271048;28;20021;-71
2022/04/30 06:03:29;;;;;;;2.67;1.70;;;20.20;48.20;;;;;;6272027;28;20035;-70
2022/04/30 06:06:29;;;;;;;2.63;1.60;;;20.20;48.30;;;;;;6271966;28;20375;-70
2022/04/30 06:09:30;;;;;;;2.15;1.60;;;20.20;48.20;;;;;;6254639;28;20050;-70
2022/04/30 06:12:31;;;;;;;2.00;1.33;;;20.20;48.20;;;;;;6270802;28;20175;-71
2022/04/30 06:15:32;;;;;;;1.88;1.38;;;20.20;48.30;;;;;;6271871;28;20021;-70
2022/04/30 06:18:32;;;;;;;2.28;1.48;;;20.20;48.20;;;;;;6270834;28;20031;-71
2022/04/30 06:21:33;;;;;;;1.98;1.35;;;20.20;48.30;;;;;;6271047;28;20546;-70
2022/04/30 06:24:34;;;;;;;1.90;1.50;;;20.20;48.20;;;;;;6272013;28;20040;-71
2022/04/30 06:27:34;;;;;;;2.17;1.38;;;20.20;48.30;;;;;;6271752;28;20035;-70
2022/04/30 06:30:35;;;;;;;1.75;1.40;;;20.20;48.20;;;;;;6271211;28;20041;-70
2022/04/30 06:33:36;;;;;;;1.67;1.42;;;20.20;48.30;;;;;;6271764;28;20403;-70
2022/04/30 06:36:36;;;;;;;2.72;1.67;;;20.20;48.30;;;;;;6253178;28;20029;-71
2022/04/30 06:39:37;;;;;;;2.22;1.50;;;20.20;48.20;;;;;;6246292;28;20048;-70
2022/04/30 06:42:42;;;;;;;1.70;1.20;;;20.20;48.30;;;;;;6247675;28;20030;-71
2022/04/30 06:45:43;;;;;;;1.73;1.33;;;20.20;48.20;;;;;;6246842;28;20435;-70
2022/04/30 06:48:46;;;;;;;1.63;1.17;;;20.20;48.50;;;;;;6247545;28;20026;-71
2022/04/30 06:51:48;;;;;;;2.13;1.20;;;20.20;48.30;;;;;;6247583;28;20125;-70
2022/04/30 06:58:08;;;;;;;1.88;1.25;;;20.20;48.30;;;;;;6247577;28;20025;-71
2022/04/30 07:01:28;;;;;;;1.95;1.33;;;20.20;48.20;;;;;;6247443;28;20071;-70
2022/04/30 07:04:32;;;;;;;1.35;1.05;;;20.20;48.30;;;;;;6247880;28;20049;-70
2022/04/30 07:07:32;;;;;;;1.60;1.08;;;20.20;48.20;;;;;;6245730;28;20029;-70
2022/04/30 07:10:33;;;;;;;2.38;1.48;;;20.20;48.30;;;;;;6247192;28;20401;-70
2022/04/30 07:13:33;;;;;;;2.42;1.88;;;20.20;48.20;;;;;;6246044;28;20025;-70
2022/04/30 07:16:34;;;;;;;2.58;1.42;;;20.20;48.20;;;;;;6246851;28;20022;-70
2022/04/30 07:19:36;;;;;;;1.98;1.17;;;20.20;48.20;;;;;;6247203;28;20391;-70
2022/04/30 07:22:38;;;;;;;2.72;1.58;;;20.20;48.20;;;;;;6245575;28;20053;-71
2022/04/30 07:25:38;;;;;;;2.97;1.40;;;20.20;48.30;;;;;;6245953;28;20131;-70
2022/04/30 07:28:39;;;;;;;1.92;1.30;;;20.20;48.20;;;;;;6245697;28;20067;-70
2022/04/30 07:31:39;;;;;;;2.15;1.30;;;20.20;48.30;;;;;;6244200;28;20033;-70
2022/04/30 07:34:40;;;;;;;1.83;1.30;;;20.20;48.30;;;;;;6243969;28;20112;-70
2022/04/30 07:37:41;;;;;;;2.00;1.33;;;20.20;48.30;;;;;;6244764;28;20033;-70
2022/04/30 07:40:41;;;;;;;2.00;1.30;;;20.20;48.30;;;;;;6243733;28;20041;-70
2022/04/30 07:43:42;;;;;;;1.85;1.30;;;20.20;49.00;;;;;;6245008;28;20025;-70
2022/04/30 07:46:42;;;;;;;1.85;1.17;;;20.20;48.30;;;;;;6244414;28;20036;-70
2022/04/30 07:49:43;;;;;;;2.05;1.23;;;20.20;48.30;;;;;;6245009;28;20031;-71
2022/04/30 07:52:44;;;;;;;1.65;1.40;;;20.20;48.30;;;;;;6260754;28;20033;-70
2022/04/30 07:55:44;;;;;;;1.92;1.42;;;20.20;48.30;;;;;;6260052;28;20237;-71
2022/04/30 07:58:45;;;;;;;2.00;1.20;;;20.20;48.30;;;;;;6245168;28;20119;-70
2022/04/30 08:01:45;;;;;;;1.92;1.25;;;20.20;48.40;;;;;;6260475;28;20029;-71
2022/04/30 08:04:46;;;;;;;2.20;1.40;;;20.20;48.30;;;;;;6244091;28;20029;-70
2022/04/30 08:07:46;;;;;;;1.75;1.17;;;20.20;48.30;;;;;;6244396;28;20032;-70
2022/04/30 08:10:47;;;;;;;2.25;1.30;;;20.20;48.30;;;;;;6244750;28;20037;-70
2022/04/30 08:13:48;;;;;;;1.52;1.00;;;20.20;48.30;;;;;;6243929;28;20121;-71
2022/04/30 08:16:48;;;;;;;2.72;1.30;;;20.20;48.30;;;;;;6245052;28;20072;-71
2022/04/30 08:19:49;;;;;;;1.33;1.10;;;20.20;48.30;;;;;;6243186;28;20358;-71
2022/04/30 08:22:50;;;;;;;1.50;1.15;;;20.20;48.30;;;;;;6244677;28;20029;-70
2022/04/30 08:25:50;;;;;;;1.70;1.20;;;20.20;48.30;;;;;;6244923;28;20057;-70
2022/04/30 08:28:51;;;;;;;1.42;0.90;;;20.20;48.30;;;;;;6244442;28;20044;-71
2022/04/30 08:31:52;;;;;;;1.80;1.20;;;20.20;48.30;;;;;;6244252;28;20109;-70
2022/04/30 08:34:59;;;;;;;1.70;1.20;;;20.20;48.30;;;;;;6248916;28;20022;-72
2022/04/30 08:38:01;;;;;;;1.73;1.20;;;20.20;48.30;;;;;;6254922;28;20021;-72
2022/04/30 08:41:03;;;;;;;1.25;0.98;;;20.20;48.30;;;;;;6239975;28;20047;-72
2022/04/30 08:44:05;;;;;;;1.67;1.10;;;20.20;48.20;;;;;;6236581;28;20037;-72
2022/04/30 08:47:11;;;;;;;2.17;1.05;;;20.20;48.20;;;;;;6227849;28;20064;-71
2022/04/30 08:50:14;;;;;;;1.77;1.27;;;20.20;48.20;;;;;;6243023;28;20020;-70
2022/04/30 08:53:15;;;;;;;1.77;1.13;;;20.20;48.20;;;;;;6241523;28;20033;-70
2022/04/30 08:56:15;;;;;;;1.58;1.20;;;20.20;48.20;;;;;;6243782;28;20075;-70
2022/04/30 08:59:16;;;;;;;1.40;1.10;;;20.20;48.20;;;;;;6258026;28;20632;-69
2022/04/30 09:02:16;;;;;;;1.50;1.20;;;20.20;48.40;;;;;;6244040;28;20030;-70
2022/04/30 09:05:17;;;;;;;1.55;1.00;;;20.30;48.40;;;;;;6244979;28;20183;-70
2022/04/30 09:08:18;;;;;;;2.67;1.17;;;20.30;48.60;;;;;;6242841;28;20065;-70
2022/04/30 09:11:28;;;;;;;2.70;1.00;;;20.30;48.40;;;;;;6258476;28;20463;-70
2022/04/30 09:14:29;;;;;;;1.13;0.88;;;20.30;48.30;;;;;;6265641;28;20026;-70
2022/04/30 09:17:29;;;;;;;0.80;0.60;;;20.30;48.40;;;;;;6241646;28;20022;-70
2022/04/30 09:20:31;;;;;;;1.25;0.90;;;20.30;48.30;;;;;;6242038;28;20075;-70
2022/04/30 09:23:32;;;;;;;2.25;1.20;;;20.30;48.30;;;;;;6240108;28;20041;-70
2022/04/30 09:26:40;;;;;;;1.10;0.80;;;20.30;48.30;;;;;;6243012;28;20484;-70
2022/04/30 09:29:41;;;;;;;1.40;1.02;;;20.30;48.30;;;;;;6236871;28;20037;-71
2022/04/30 09:32:42;;;;;;;1.70;0.98;;;20.20;48.20;;;;;;6219273;28;20037;-70
2022/04/30 09:39:18;;;;;;;1.45;1.08;;;20.30;48.40;;;;;;6221785;28;20042;-70
2022/04/30 09:42:19;;;;;;;1.88;0.82;;;20.30;48.40;;;;;;6242262;28;20029;-69
2022/04/30 09:45:22;;;;;;;1.70;1.00;;;20.20;48.20;;;;;;6267731;28;20032;-70
2022/04/30 09:55:01;;;;;;;1.27;0.90;;;20.30;48.40;;;;;;6267651;28;20025;-69
2022/04/30 09:58:03;;;;;;;0.88;0.80;;;20.20;48.30;;;;;;6266420;28;20690;-70
2022/04/30 10:01:06;;;;;;;1.70;0.90;;;20.30;48.40;;;;;;6267849;28;20017;-70
2022/04/30 10:04:09;;;;;;;1.58;0.90;;;20.30;48.40;;;;;;6267238;28;20025;-70
2022/04/30 10:07:11;;;;;;;0.90;0.70;;;20.30;48.40;;;;;;6267316;28;20496;-69
2022/04/30 10:10:21;;;;;;;2.15;0.90;;;20.20;48.30;;;;;;6267403;28;20123;-70
2022/04/30 10:13:36;;;;;;;1.75;0.85;;;20.20;48.30;;;;;;6270572;28;20103;-69
2022/04/30 10:16:38;;;;;;;3.70;0.98;;;20.20;48.30;;;;;;6292312;28;20430;-69
2022/04/30 10:19:45;;;;;;;1.55;1.00;;;20.30;48.40;;;;;;6295261;28;20620;-70
2022/04/30 10:22:53;;;;;;;1.73;1.00;;;20.30;48.40;;;;;;6279063;28;20028;-70
2022/04/30 10:26:08;;;;;;;1.10;0.80;;;20.20;48.30;;;;;;6250539;28;20029;-69
2022/04/30 10:29:11;;;;;;;1.37;1.00;;;20.30;48.40;;;;;;6246983;28;20434;-70
2022/04/30 10:32:24;;;;;;;1.00;0.70;;;20.20;48.30;;;;;;6228844;28;20026;-70
2022/04/30 10:35:33;;;;;;;1.23;0.80;;;20.20;48.40;;;;;;6229000;28;20026;-70
2022/04/30 10:38:34;;;;;;;1.73;0.80;;;20.30;48.40;;;;;;6229872;28;20029;-69
2022/04/30 10:41:45;;;;;;;1.60;1.02;;;20.30;48.50;;;;;;6244745;28;20045;-73
2022/04/30 10:44:54;;;;;;;1.20;0.80;;;20.30;48.70;;;;;;6243248;28;20468;-75
2022/04/30 10:47:58;;;;;;;1.20;0.80;;;20.30;49.20;;;;;;6244862;28;20071;-75
2022/04/30 10:51:08;;;;;;;0.80;0.70;;;20.30;48.50;;;;;;6246185;28;20057;-74
2022/04/30 10:54:11;;;;;;;0.70;0.63;;;20.30;48.50;;;;;;6245953;28;20025;-75
2022/04/30 10:57:13;;;;;;;1.38;0.70;;;20.30;48.50;;;;;;6243968;28;20053;-74
2022/04/30 11:00:14;;;;;;;1.90;1.30;;;20.30;48.50;;;;;;6246397;28;20112;-74
2022/04/30 11:03:14;;;;;;;0.93;0.70;;;20.30;48.50;;;;;;6245619;28;20033;-75
2022/04/30 11:06:22;;;;;;;1.35;0.65;;;20.30;48.50;;;;;;6245223;28;20396;-75
2022/04/30 11:09:23;;;;;;;0.85;0.70;;;20.30;48.50;;;;;;6246131;28;20021;-75
2022/04/30 11:12:30;;;;;;;3.45;1.00;;;20.30;48.50;;;;;;6245606;28;20022;-74
2022/04/30 11:15:31;;;;;;;1.27;0.55;;;20.30;48.60;;;;;;6232404;28;20114;-74
2022/04/30 11:18:32;;;;;;;1.98;0.70;;;20.30;48.50;;;;;;6235144;28;20026;-75
2022/04/30 11:21:35;;;;;;;3.72;0.90;;;20.20;48.40;;;;;;6259780;28;20025;-74
2022/04/30 11:24:39;;;;;;;1.60;0.90;;;20.20;48.40;;;;;;6230957;28;20124;-76
2022/04/30 11:27:39;;;;;;;1.30;0.80;;;20.20;48.40;;;;;;6220385;28;20473;-74
2022/04/30 11:30:45;;;;;;;5.13;0.73;;;20.20;48.50;;;;;;6219954;28;20041;-74
2022/04/30 11:33:45;;;;;;;1.45;0.90;;;20.20;48.40;;;;;;6220803;28;20026;-73
2022/04/30 11:36:54;;;;;;;1.73;0.80;;;20.20;48.40;;;;;;6218979;28;20068;-74
2022/04/30 11:40:03;;;;;;;1.27;0.82;;;20.20;48.40;;;;;;6231213;28;20049;-74
2022/04/30 11:43:04;;;;;;;0.93;0.65;;;20.20;48.50;;;;;;6245048;28;20503;-74
2022/04/30 11:46:04;;;;;;;1.00;0.80;;;20.20;48.50;;;;;;6268507;28;20021;-74
2022/04/30 11:49:09;;;;;;;0.90;0.55;;;20.20;48.50;;;;;;6269828;28;20564;-74
2022/04/30 11:52:11;;;;;;;0.88;0.63;;;20.20;48.50;;;;;;6237702;28;20941;-74
2022/04/30 11:55:13;;;;;;;0.85;0.60;;;20.20;48.50;;;;;;6244544;28;20087;-74
2022/04/30 11:58:14;;;;;;;0.77;0.60;;;20.20;49.20;;;;;;6262088;28;20013;-74
2022/04/30 12:01:23;;;;;;;0.88;0.60;;;20.20;48.50;;;;;;6261013;28;20025;-74
2022/04/30 12:04:24;;;;;;;3.50;0.70;;;20.20;48.50;;;;;;6230824;28;20072;-74
2022/04/30 12:07:35;;;;;;;0.63;0.52;;;20.20;48.50;;;;;;6229027;28;20017;-74
2022/04/30 12:10:37;;;;;;;0.93;0.70;;;20.20;48.50;;;;;;6259428;28;20029;-73
2022/04/30 12:13:37;;;;;;;2.53;0.60;;;20.20;48.50;;;;;;6268016;28;20032;-74
2022/04/30 12:16:40;;;;;;;1.65;0.70;;;20.20;48.50;;;;;;6232859;28;20034;-74
2022/04/30 12:26:24;;;;;;;1.13;0.70;;;20.20;48.50;;;;;;6267579;28;20040;-74
2022/04/30 12:29:25;;;;;;;1.85;0.60;;;20.20;48.60;;;;;;6258615;28;20071;-74
2022/04/30 12:32:26;;;;;;;0.93;0.80;;;20.20;48.60;;;;;;6240723;28;20478;-75
2022/04/30 12:35:28;;;;;;;2.97;0.63;;;20.20;48.60;;;;;;6266125;28;20197;-74
2022/04/30 12:38:31;;;;;;;1.13;0.65;;;20.20;48.60;;;;;;6237794;28;20024;-74
2022/04/30 12:41:31;;;;;;;3.25;0.70;;;20.20;48.60;;;;;;6267178;28;20124;-74
2022/04/30 12:44:32;;;;;;;1.50;0.70;;;20.20;48.60;;;;;;6264826;28;20035;-74
2022/04/30 12:47:33;;;;;;;1.15;0.70;;;20.20;48.60;;;;;;6242237;28;20021;-74
2022/04/30 12:50:35;;;;;;;1.75;0.75;;;20.20;48.60;;;;;;6249609;28;20083;-74
2022/04/30 12:53:36;;;;;;;1.55;0.70;;;20.20;48.70;;;;;;6247940;28;20051;-75
2022/04/30 12:56:43;;;;;;;0.85;0.63;;;20.20;48.60;;;;;;6248454;28;20060;-74
2022/04/30 12:59:44;;;;;;;0.85;0.57;;;20.20;48.70;;;;;;6266482;28;20067;-74
2022/04/30 13:02:45;;;;;;;1.10;0.68;;;20.20;48.60;;;;;;6247969;28;20025;-73
2022/04/30 13:05:46;;;;;;;3.42;0.68;;;20.20;48.80;;;;;;6259085;28;20030;-75
2022/04/30 13:15:27;;;;;;;6.20;0.75;;;20.20;48.60;;;;;;6265570;28;20029;-74
2022/04/30 13:18:28;;;;;;;3.65;0.75;;;20.20;48.60;;;;;;6247196;28;20044;-75
2022/04/30 13:21:29;;;;;;;1.35;0.70;;;20.20;48.60;;;;;;6247839;28;20021;-74
2022/04/30 13:24:30;;;;;;;4.32;0.93;;;20.20;48.70;;;;;;6247709;28;20024;-75
2022/04/30 13:27:31;;;;;;;1.75;0.70;;;20.20;48.60;;;;;;6265207;28;20467;-74
2022/04/30 13:30:32;;;;;;;1.00;0.60;;;20.20;48.70;;;;;;6234409;28;20026;-74
2022/04/30 13:33:33;;;;;;;1.98;0.80;;;20.20;48.60;;;;;;6244844;28;20045;-74
2022/04/30 13:36:37;;;;;;;3.53;0.60;;;20.20;48.70;;;;;;6255256;28;20044;-74
2022/04/30 13:39:38;;;;;;;3.17;0.95;;;20.20;48.70;;;;;;6214683;28;20185;-74
2022/04/30 13:42:39;;;;;;;1.90;0.60;;;20.20;48.60;;;;;;6224822;28;20037;-74
2022/04/30 13:45:40;;;;;;;0.88;0.57;;;20.20;48.60;;;;;;6240016;28;20029;-74
2022/04/30 13:48:40;;;;;;;1.60;0.68;;;20.20;48.70;;;;;;6254492;28;20037;-76
2022/04/30 13:51:41;;;;;;;3.42;0.70;;;20.20;48.70;;;;;;6256233;28;20040;-74
2022/04/30 13:54:41;;;;;;;0.85;0.65;;;20.20;48.70;;;;;;6244398;28;20143;-75
2022/04/30 13:57:42;;;;;;;2.58;0.60;;;20.20;48.70;;;;;;6245391;28;20030;-74
2022/04/30 14:00:44;;;;;;;1.75;0.57;;;20.20;48.70;;;;;;6236306;28;20056;-74
2022/04/30 14:03:45;;;;;;;2.47;0.65;;;20.20;48.70;;;;;;6242268;28;20086;-74
2022/04/30 14:06:46;;;;;;;0.80;0.50;;;20.20;48.70;;;;;;6241866;28;20033;-68
2022/04/30 14:09:46;;;;;;;0.50;0.50;;;20.20;48.70;;;;;;6245696;28;20072;-73
2022/04/30 14:12:47;;;;;;;1.85;0.60;;;20.20;48.70;;;;;;6245690;28;20030;-74
2022/04/30 14:15:48;;;;;;;0.95;0.57;;;20.20;48.70;;;;;;6245684;28;20030;-74
2022/04/30 14:18:49;;;;;;;1.15;0.50;;;20.20;48.70;;;;;;6245795;28;20017;-73
2022/04/30 14:21:50;;;;;;;1.90;0.60;;;20.20;48.70;;;;;;6260546;28;20021;-74
2022/04/30 14:24:51;;;;;;;0.90;0.60;;;20.20;48.70;;;;;;6244639;28;20029;-71
2022/04/30 14:27:51;;;;;;;0.60;0.50;;;20.20;48.70;;;;;;6259772;28;20029;-72
2022/04/30 14:30:52;;;;;;;0.82;0.68;;;20.20;48.70;;;;;;6259011;28;20151;-72
2022/04/30 14:33:52;;;;;;;1.20;0.57;;;20.20;48.70;;;;;;6244674;28;20022;-72
2022/04/30 14:36:53;;;;;;;0.60;0.50;;;20.20;48.70;;;;;;6244772;28;20026;-72
2022/04/30 14:39:54;;;;;;;1.13;0.60;;;20.20;48.70;;;;;;6255850;28;20072;-72
2022/04/30 14:42:54;;;;;;;1.55;0.80;;;20.20;48.70;;;;;;6251271;28;20656;-71
2022/04/30 14:45:56;;;;;;;0.85;0.57;;;20.20;48.70;;;;;;6263651;28;20036;-72
2022/04/30 14:48:56;;;;;;;1.83;0.63;;;20.20;48.70;;;;;;6264918;28;20059;-72
2022/04/30 14:51:58;;;;;;;4.63;0.75;;;20.20;48.70;;;;;;6248165;28;20438;-71
2022/04/30 14:54:58;;;;;;;1.38;0.60;;;20.20;48.70;;;;;;6264530;28;20048;-71
2022/04/30 14:57:59;;;;;;;2.50;0.50;;;20.20;48.70;;;;;;6248141;28;20711;-70
2022/04/30 15:01:00;;;;;;;1.30;0.60;;;20.20;48.80;;;;;;6248092;28;20024;-70
2022/04/30 15:04:01;;;;;;;0.88;0.60;;;20.20;48.80;;;;;;6263873;28;20032;-70
2022/04/30 15:07:02;;;;;;;3.42;0.60;;;20.20;48.80;;;;;;6264870;28;20025;-68
2022/04/30 15:10:03;;;;;;;1.13;0.80;;;20.20;48.70;;;;;;6247867;28;20024;-68
2022/04/30 15:13:04;;;;;;;1.35;0.60;;;20.20;48.80;;;;;;6265107;28;20029;-69
2022/04/30 15:16:05;;;;;;;1.50;0.50;;;20.20;48.80;;;;;;6247618;28;20021;-69
2022/04/30 15:19:06;;;;;;;1.42;0.60;;;20.20;48.80;;;;;;6265193;28;20024;-69
2022/04/30 15:22:08;;;;;;;0.50;0.50;;;20.20;48.80;;;;;;6248162;28;20083;-70
2022/04/30 15:25:09;;;;;;;1.08;0.52;;;20.20;48.80;;;;;;6264772;28;20158;-68
2022/04/30 15:28:10;;;;;;;1.60;0.50;;;20.20;48.80;;;;;;6263382;28;20032;-69
2022/04/30 15:31:10;;;;;;;1.23;0.60;;;20.20;48.80;;;;;;6265629;28;20088;-68
2022/04/30 15:34:11;;;;;;;1.75;0.75;;;20.20;48.80;;;;;;6248690;28;20059;-70
2022/04/30 15:37:11;;;;;;;1.55;0.50;;;20.20;48.80;;;;;;6248826;28;20032;-70
2022/04/30 15:40:12;;;;;;;2.05;0.55;;;20.20;48.80;;;;;;6246400;28;20041;-70
2022/04/30 15:43:13;;;;;;;2.38;0.63;;;20.20;48.80;;;;;;6263537;28;20696;-71
2022/04/30 15:46:16;;;;;;;6.43;0.80;;;20.20;48.90;;;;;;6246945;28;20035;-70
2022/04/30 15:52:36;;;;;;;5.97;1.10;;;20.30;49.00;;;;;;6264813;28;20029;-70
2022/04/30 15:55:38;;;;;;;11.23;1.02;;;20.30;48.90;;;;;;6263705;28;20017;-70
2022/04/30 15:58:42;;;;;;;9.50;0.77;;;20.20;48.80;;;;;;6246201;28;20025;-69
2022/04/30 16:01:43;;;;;;;7.30;0.80;;;20.20;48.80;;;;;;6263798;28;20017;-70
2022/04/30 16:04:44;;;;;;;4.00;0.80;;;20.20;48.80;;;;;;6264308;28;20036;-69
2022/04/30 16:07:45;;;;;;;9.15;0.90;;;20.20;48.80;;;;;;6265337;28;20018;-70
2022/04/30 16:10:45;;;;;;;4.78;0.70;;;20.20;48.90;;;;;;6265136;28;20025;-68
2022/04/30 16:13:48;;;;;;;8.55;1.15;;;20.20;48.90;;;;;;6266736;28;20118;-76
2022/04/30 16:16:49;;;;;;;2.85;0.57;;;20.20;48.90;;;;;;6265022;28;20025;-71
2022/04/30 16:19:49;;;;;;;3.38;0.75;;;20.20;49.40;;;;;;6279459;28;20024;-74
2022/04/30 16:22:50;;;;;;;5.03;0.80;;;20.20;49.00;;;;;;6262241;28;20531;-73
2022/04/30 16:25:51;;;;;;;1.17;0.60;;;20.20;48.90;;;;;;6263496;28;20033;-71
2022/04/30 16:28:52;;;;;;;5.80;0.82;;;20.20;49.20;;;;;;6263165;28;20033;-70
2022/04/30 16:31:53;;;;;;;11.27;1.20;;;20.20;49.20;;;;;;6263729;28;20048;-70
2022/04/30 16:34:54;;;;;;;11.05;1.80;;;20.30;49.20;;;;;;6263599;28;20115;-70